Terminal Aerodrome Forecast
Issued by NWS Wilmington, OH

Current Version | Previous Version | Graphics & Text | Print | Product List | Glossary On
Versions: 1 2 3 4 5 6 7 8 9 10 11 12 13 14 15 16 17 18 19 20 21 22 23 24 25 26
000
FTUS41 KILN 201500 AAA
TAFILN
TAF AMD
KILN 201501Z 2015/2112 21012KT P6SM BKN080
     FM201700 23012G20KT P6SM VCSH BKN050
     FM202100 21009KT P6SM VCSH OVC025
     FM210300 27007KT P6SM SCT020
     FM210500 30006KT 5SM BR OVC006=

USA.gov is the U.S. government's official web portal to all federal, state and local government web resources and services.